Latest Coastal Weather Observations for Wadeye (Port Keats)

IDD60701

Issued at 8:45 am CST Thursday 27 November 2014 (issued every 10 minutes, with the page automatically refreshed every 10 minutes)

About coastal observations | Map of coastal stations | Coastal observations for NT | Marine services | Other Formats
Station Details ID: 014948 Name: PORT KEATS AIRPORT Lat: -14.25 Lon: 129.53 Height: 28.0 m
Data from the previous 72 hours. | See also: Recent months at Wadeye (Port Keats)
Date/Time
CST
Temp

°C
Wind Pressure Rain
since 9am
mm
Weather Cloud Vis
km
Sea
Height
m
Swell
Dir
 
Speed
knots
Gust
knots
hPa Trend Height
m
Period
s
Dir
27/08:30am 22.3 NE 5 7 1010.8 - 45.4 - - - - - - -
27/08:00am 22.4 NNE 7 8 1010.8 - 44.4 - - - - - - -
27/07:30am 22.7 NNE 7 10 1010.6 - 43.4 - - - - - - -
27/07:00am 22.7 NNE 6 9 1010.0 - 43.0 - - - - - - -
27/06:30am 22.8 NNE 10 14 1009.8 - 40.8 - - - - - - -
27/06:00am 23.3 ENE 7 11 1009.2 - 23.0 Showers - - - - - -
27/05:30am 23.7 NE 12 15 1007.8 - 1.0 - - - - - - -
27/05:00am 25.6 CALM 0 0 1007.1 - 0.0 - - - - - - -
27/04:30am 25.4 SSE 2 3 1006.9 - 0.0 - - - - - - -
27/04:00am 25.5 E 1 5 1007.0 - 0.0 - - - - - - -
27/03:30am 25.4 SSE 1 3 1006.9 - 0.0 - - - - - - -
27/03:00am 25.0 CALM 0 0 1006.8 - 0.0 - - - - - - -
27/02:30am 25.4 CALM 0 3 1006.8 - 0.0 - - - - - - -
27/02:00am 25.8 CALM 0 3 1006.9 - 0.0 - - - - - - -
27/01:30am 26.0 NE 3 5 1007.1 - 0.0 - - - - - - -
27/01:00am 25.8 CALM 0 0 1007.4 - 0.0 - - - - - - -
27/12:30am 25.8 E 3 4 1007.5 - 0.0 - - - - - - -
27/12:00am 25.9 E 2 5 1007.8 - 0.0 - - - - - - -
 
Date/Time
CST
Temp

°C
Wind Pressure Rain
since 9am
mm
Weather Cloud Vis
km
Sea
Height
m
Swell
Dir
 
Speed
knots
Gust
knots
hPa Trend Height
m
Period
s
Dir
26/11:30pm 26.0 E 3 3 1007.9 - 0.0 - - - - - - -
26/11:00pm 25.9 ESE 4 4 1007.9 - 0.0 - - - - - - -
26/10:30pm 26.1 ENE 1 4 1007.8 - 0.0 - - - - - - -
26/10:00pm 26.6 N 4 5 1007.6 - 0.0 - - - - - - -
26/09:30pm 26.0 ESE 1 3 1007.4 - 0.0 - - - - - - -
26/09:00pm 26.5 NNW 3 5 1006.9 - 0.0 - - - - - - -
26/08:30pm 26.2 SSE 5 7 1006.9 - 0.0 - - - - - - -
26/08:00pm 26.9 S 2 5 1006.9 - 0.0 - - - - - - -
26/07:30pm 27.5 SSE 7 9 1006.9 - 0.0 - - - - - - -
26/07:00pm 27.5 S 8 11 1006.3 - 0.0 - - - - - - -
26/06:30pm 30.1 SSW 4 17 1006.2 - 0.0 - - - - - - -
26/06:00pm 31.5 W 6 10 1005.2 - 0.0 - - - - - - -
26/05:30pm 32.0 W 8 12 1004.8 - 0.0 - - - - - - -
26/05:00pm 32.7 WNW 9 13 1004.5 - 0.0 - - - - - - -
26/04:30pm 32.7 NW 8 11 1004.6 - 0.0 - - - - - - -
26/04:00pm 33.0 W 9 11 1005.0 - 0.0 - - - - - - -
26/03:30pm 34.4 NW 8 12 1005.1 - 0.0 - - - - - - -
26/03:00pm 34.2 WNW 5 10 1005.3 - 0.0 - - - - - - -
26/02:30pm 34.2 ESE 5 8 1005.5 - 0.0 - - - - - - -
26/02:00pm 34.7 SSE 5 11 1005.9 - 0.0 - - - - - - -
26/01:30pm 33.7 ENE 8 12 1006.4 - 0.0 - - - - - - -
26/01:00pm 34.0 N 5 8 1006.9 - 0.0 - - - - - - -
26/12:30pm 34.3 NNE 5 11 1007.3 - 0.0 - - - - - - -
26/12:00pm 33.2 NE 6 11 1007.8 - 0.0 - - - - - - -
26/11:30am 32.4 ESE 9 12 1008.1 - 0.0 - - - - - - -
26/11:00am 31.7 E 8 11 1008.5 - 0.0 - - - - - - -
26/10:30am 31.3 E 6 9 1008.9 - 0.0 - - - - - - -
26/10:00am 29.0 E 5 8 1009.0 - 0.0 - - - - - - -
26/09:30am 27.9 SE 6 9 1009.4 - 0.0 - - - - - - -
26/09:00am 27.4 SE 8 11 1009.4 - 0.4 - - - - - - -
26/08:30am 26.9 SSE 8 11 1009.4 - 0.4 - - - - - - -
26/08:00am 26.6 SSE 8 12 1009.0 - 0.4 - - - - - - -
26/07:30am 26.1 SSE 7 10 1008.7 - 0.4 - - - - - - -
26/07:00am 25.7 S 3 5 1008.4 - 0.4 - - - - - - -
26/06:30am 26.0 SSE 6 8 1007.7 - 0.4 - - - - - - -
26/06:00am 26.3 SE 7 9 1007.3 - 0.4 - - - - - - -
26/05:30am 26.0 SE 4 5 1006.7 - 0.4 - - - - - - -
26/05:00am 25.3 SW 1 3 1006.0 - 0.4 - - - - - - -
26/04:30am 26.0 SE 3 4 1005.9 - 0.4 - - - - - - -
26/04:00am 25.7 ENE 3 5 1005.6 - 0.4 - - - - - - -
26/03:30am 25.7 NE 5 7 1005.6 - 0.4 - - - - - - -
26/03:00am 26.0 ENE 4 5 1006.0 - 0.4 - - - - - - -
26/02:30am 26.4 ENE 4 6 1006.3 - 0.4 - - - - - - -
26/02:00am 26.6 ESE 6 8 1007.0 - 0.4 - - - - - - -
26/01:30am 26.8 SE 8 11 1007.4 - 0.4 - - - - - - -
26/01:00am 26.5 E 6 8 1008.0 - 0.4 - - - - - - -
26/12:30am 26.6 ESE 6 8 1008.0 - 0.4 - - - - - - -
26/12:00am 26.8 SE 8 12 1008.5 - 0.4 - - - - - - -
 
Date/Time
CST
Temp

°C
Wind Pressure Rain
since 9am
mm
Weather Cloud Vis
km
Sea
Height
m
Swell
Dir
 
Speed
knots
Gust
knots
hPa Trend Height
m
Period
s
Dir
25/11:30pm 26.2 SE 10 14 1008.1 - 0.4 - - - - - - -
25/11:04pm 26.4 SE 15 20 1008.7 - 0.4 - - - - - - -
25/11:00pm 26.3 ESE 5 9 1008.3 - 0.4 - - - - - - -
25/10:30pm 26.2 E 5 7 1008.1 - 0.4 - - - - - - -
25/10:00pm 26.4 ENE 5 6 1007.7 - 0.4 - - - - - - -
25/09:30pm 26.7 ENE 4 4 1006.9 - 0.4 - - - - - - -
25/09:00pm 27.1 ENE 3 4 1006.5 - 0.4 - - - - - - -
25/08:30pm 27.4 NNE 4 6 1006.5 - 0.4 - - - - - - -
25/08:00pm 27.8 N 4 6 1006.4 - 0.4 - - - - - - -
25/07:30pm 28.1 NE 4 6 1006.4 - 0.4 - - - - - - -
25/07:00pm 28.6 NNE 3 5 1005.9 - 0.4 - - - - - - -
25/06:30pm 29.1 ENE 4 5 1005.4 - 0.4 - - - - - - -
25/06:00pm 29.4 N 6 8 1004.9 - 0.4 - - - - - - -
25/05:30pm 29.5 N 5 7 1004.8 - 0.4 - - - - - - -
25/05:00pm 29.1 N 5 7 1005.0 - 0.4 - - - - - - -
25/04:30pm 28.4 E 2 4 1005.5 - 0.4 - - - - - - -
25/04:00pm 26.7 NNE 6 7 1006.0 - 0.4 - - - - - - -
25/03:30pm 26.2 E 3 5 1006.7 - 0.2 - - - - - - -
25/03:00pm 26.0 ESE 1 4 1006.8 - 0.2 Recent precip. - - - - - -
25/02:30pm 24.8 S 7 13 1007.6 - 0.2 - - - - - - -
25/02:02pm 25.0 SE 15 25 1008.9 - 0.0 - - - - - - -
25/02:00pm 25.1 SE 17 25 1009.1 - 0.0 - - - - - - -
25/01:42pm 26.3 ESE 16 26 1009.8 - 0.0 - - - - - - -
25/01:39pm 26.7 ESE 15 19 1009.8 - 0.0 - - - - - - -
25/01:30pm 26.2 E 6 9 1008.8 - 0.0 - - - - - - -
25/01:00pm 25.4 ESE 9 13 1009.4 - 0.0 - - - - - - -
25/12:30pm 25.7 N 14 21 1008.9 - 0.0 - - - - - - -
25/12:00pm 28.7 N 11 16 1008.4 - 0.0 - - - - - - -
25/11:30am 32.8 SW 9 14 1007.9 - 0.0 - - - - - - -
25/11:00am 32.9 SW 7 11 1008.7 - 0.0 - - - - - - -
25/10:30am 32.0 WSW 6 10 1009.2 - 0.0 - - - - - - -
25/10:00am 31.8 SW 5 7 1009.2 - 0.0 - - - - - - -
25/09:30am 31.2 SSW 5 10 1009.2 - 0.0 - - - - - - -
25/09:00am 30.8 ENE 3 5 1009.1 - 0.0 - - - - - - -
25/08:30am 29.3 ESE 4 5 1009.0 - 0.0 - - - - - - -
25/08:00am 27.7 E 3 4 1008.8 - 0.0 - - - - - - -
25/07:30am 27.2 SE 4 5 1008.2 - 0.0 - - - - - - -
25/07:00am 26.6 ESE 5 6 1008.3 - 0.0 - - - - - - -
25/06:30am 26.3 NE 3 6 1008.2 - 0.0 - - - - - - -
25/06:00am 26.2 E 5 6 1007.4 - 0.0 - - - - - - -
25/05:30am 26.2 E 1 3 1007.2 - 0.0 - - - - - - -
25/05:00am 26.1 E 3 4 1007.3 - 0.0 - - - - - - -
25/04:30am 26.1 ENE 3 5 1007.3 - 0.0 - - - - - - -
25/04:00am 26.4 NE 3 5 1006.8 - 0.0 - - - - - - -
25/03:30am 26.2 N 2 4 1006.7 - 0.0 - - - - - - -
25/03:00am 26.1 ENE 3 5 1007.1 - 0.0 - - - - - - -
25/02:30am 26.1 NE 5 6 1007.3 - 0.0 - - - - - - -
25/02:00am 26.5 CALM 0 3 1007.8 - 0.0 - - - - - - -
25/01:30am 26.5 SSE 3 5 1008.1 - 0.0 - - - - - - -
25/01:00am 26.0 SW 3 4 1008.0 - 0.0 - - - - - - -
25/12:30am 26.0 SW 2 4 1008.4 - 0.0 - - - - - - -
25/12:00am 26.5 SSW 1 3 1009.0 - 0.0 - - - - - - -
 
Date/Time
CST
Temp

°C
Wind Pressure Rain
since 9am
mm
Weather Cloud Vis
km
Sea
Height
m
Swell
Dir
 
Speed
knots
Gust
knots
hPa Trend Height
m
Period
s
Dir
24/11:30pm 26.9 NNE 1 4 1009.0 - 0.0 - - - - - - -
24/11:00pm 27.2 E 4 5 1009.2 - 0.0 - - - - - - -
24/10:30pm 27.0 SSW 2 5 1009.1 - 0.0 - - - - - - -
24/10:00pm 27.6 SE 2 4 1009.3 - 0.0 - - - - - - -
24/09:30pm 28.0 ENE 5 6 1009.3 - 0.0 - - - - - - -
24/09:00pm 28.2 CALM 0 0 1008.8 - 0.0 - - - - - - -
24/08:30pm 28.6 NE 5 6 1008.2 - 0.0 - - - - - - -
24/08:00pm 29.1 E 5 7 1007.8 - 0.0 - - - - - - -
24/07:30pm 29.6 N 5 7 1007.0 - 0.0 - - - - - - -
24/07:00pm 28.9 N 2 4 1006.8 - 0.0 - - - - - - -
24/06:30pm 28.5 E 3 4 1007.2 - 0.0 - - - - - - -
24/06:00pm 28.0 S 3 5 1007.5 - 0.0 - - - - - - -
24/05:30pm 30.5 S 11 16 1007.8 - 0.0 - - - - - - -
24/05:00pm 29.5 E 10 13 1007.6 - 0.0 - - - - - - -
24/04:30pm 31.9 N 9 11 1007.1 - 0.0 - - - - - - -
24/04:00pm 32.2 NNW 8 12 1007.3 - 0.0 - - - - - - -
24/03:30pm 32.7 NW 8 12 1006.8 - 0.0 - - - - - - -
24/03:00pm 33.6 NW 8 14 1006.0 - 0.0 - - - - - - -
24/02:30pm 31.3 N 10 13 1006.7 - 0.0 - - - - - - -
24/02:00pm 30.7 NE 9 14 1008.2 - 0.0 - - - - - - -
24/01:30pm 33.4 WNW 9 15 1008.1 - 0.0 - - - - - - -
24/01:00pm 32.9 WNW 9 15 1007.9 - 0.0 - - - - - - -
24/12:30pm 33.3 WNW 8 12 1008.9 - 0.0 - - - - - - -
24/12:00pm 33.2 W 9 12 1009.7 - 0.0 - - - - - - -
24/11:30am 33.6 W 8 11 1010.0 - 0.0 - - - - - - -
24/11:00am 32.6 W 7 13 1010.1 - 0.0 - - - - - - -
24/10:30am 33.3 WNW 7 9 1010.5 - 0.0 - - - - - - -
24/10:00am 32.0 W 6 10 1010.8 - 0.0 - - - - - - -
24/09:30am 31.7 WNW 6 9 1010.8 - 0.0 - - - - - - -
24/09:00am 31.1 WNW 7 11 1010.6 - 0.0 - - - - - - -

Other Formats:

Comma delimited format used in spreadsheet applications
http://www.bom.gov.au/fwo/IDD60701/IDD60701.95111.axf

JavaScript Object Notation format (JSON) in row-major order
http://www.bom.gov.au/fwo/IDD60701/IDD60701.95111.json